Time;durP1;ratioP1;P1;durP2;ratioP2;P2;SDS_P1;SDS_P2;PMS_P1;PMS_P2;Temp;Humidity;BMP_temperature;BMP_pressure;BME280_temperature;BME280_humidity;BME280_pressure;Samples;Min_cycle;Max_cycle;Signal;HPM_P1;HPM_P2
2022/04/19 00:02:02;;;;;;;5.57;4.70;;;4.00;99.90;;;;;;5072618;28;20658;-75
2022/04/19 00:04:28;;;;;;;7.57;5.53;;;3.90;99.90;;;;;;5072554;28;20194;-75
2022/04/19 00:06:56;;;;;;;8.10;5.97;;;3.80;99.90;;;;;;5072998;28;20225;-75
2022/04/19 00:09:23;;;;;;;9.63;6.33;;;3.70;99.90;;;;;;5076896;28;20195;-75
2022/04/19 00:11:49;;;;;;;9.37;6.33;;;4.00;99.90;;;;;;5076209;28;20530;-75
2022/04/19 00:14:16;;;;;;;9.20;5.80;;;4.10;99.90;;;;;;5076561;28;20253;-74
2022/04/19 00:16:43;;;;;;;8.60;6.37;;;4.20;99.90;;;;;;5076096;28;20612;-74
2022/04/19 00:19:10;;;;;;;11.20;7.07;;;4.20;99.90;;;;;;5076612;28;20201;-75
2022/04/19 00:21:36;;;;;;;9.73;6.70;;;4.10;99.90;;;;;;5076760;28;20256;-74
2022/04/19 00:24:05;;;;;;;9.87;6.43;;;3.90;99.90;;;;;;5076699;28;20204;-74
2022/04/19 00:26:32;;;;;;;9.17;6.13;;;4.10;99.90;;;;;;5076367;28;20225;-74
2022/04/19 00:28:59;;;;;;;10.67;6.60;;;4.20;99.90;;;;;;5075854;28;20203;-74
2022/04/19 00:31:26;;;;;;;6.80;4.90;;;4.20;99.90;;;;;;5075889;28;20204;-74
2022/04/19 00:33:53;;;;;;;6.73;5.10;;;4.00;99.90;;;;;;5076126;28;20200;-74
2022/04/19 00:36:21;;;;;;;6.20;4.97;;;3.80;99.90;;;;;;5076081;28;20206;-74
2022/04/19 00:38:48;;;;;;;7.23;4.90;;;3.70;99.90;;;;;;5076047;28;20254;-74
2022/04/19 00:41:17;;;;;;;6.67;4.70;;;3.60;99.90;;;;;;5075731;28;20207;-75
2022/04/19 00:43:43;;;;;;;6.43;4.87;;;3.50;99.90;;;;;;5074169;28;20223;-75
2022/04/19 00:46:10;;;;;;;6.60;4.80;;;3.60;99.90;;;;;;5075594;28;20272;-74
2022/04/19 00:48:37;;;;;;;9.17;5.73;;;3.50;99.90;;;;;;5075819;28;20270;-75
2022/04/19 00:51:04;;;;;;;8.20;5.70;;;3.50;99.90;;;;;;5075788;28;20197;-75
2022/04/19 00:53:30;;;;;;;8.10;5.80;;;3.40;99.90;;;;;;5075683;28;20648;-75
2022/04/19 00:55:58;;;;;;;8.10;6.23;;;3.60;99.90;;;;;;5075786;28;20196;-75
2022/04/19 00:58:26;;;;;;;7.97;5.77;;;3.70;99.90;;;;;;5076007;28;20202;-75
2022/04/19 01:00:53;;;;;;;5.83;4.90;;;3.60;99.90;;;;;;5075732;28;20630;-75
2022/04/19 01:03:22;;;;;;;10.27;5.07;;;3.40;99.90;;;;;;5075711;28;20205;-75
2022/04/19 01:05:53;;;;;;;7.00;5.13;;;3.20;99.90;;;;;;5075351;28;20225;-75
2022/04/19 01:08:20;;;;;;;7.77;5.03;;;3.10;99.90;;;;;;5075630;28;20653;-75
2022/04/19 01:10:47;;;;;;;6.83;5.07;;;3.10;99.90;;;;;;5075061;28;20193;-75
2022/04/19 01:13:19;;;;;;;8.50;5.60;;;3.00;99.90;;;;;;5075284;28;20201;-75
2022/04/19 01:15:48;;;;;;;7.43;5.80;;;2.90;99.90;;;;;;5075341;28;20208;-75
2022/04/19 01:18:20;;;;;;;6.87;5.30;;;2.90;99.90;;;;;;5075248;28;20193;-75
2022/04/19 01:20:48;;;;;;;7.80;5.63;;;2.80;99.90;;;;;;5074839;28;20233;-75
2022/04/19 01:23:18;;;;;;;7.27;6.10;;;2.70;99.90;;;;;;5074832;28;20267;-75
2022/04/19 01:25:44;;;;;;;12.77;7.77;;;3.00;99.90;;;;;;5074844;28;20213;-75
2022/04/19 01:28:11;;;;;;;9.40;7.10;;;2.90;99.90;;;;;;5075055;28;20193;-75
2022/04/19 01:30:39;;;;;;;12.47;7.83;;;2.80;99.90;;;;;;5075202;28;20227;-75
2022/04/19 01:33:06;;;;;;;12.50;8.23;;;2.70;99.90;;;;;;5075222;28;20197;-75
2022/04/19 01:35:32;;;;;;;16.57;9.37;;;3.00;99.90;;;;;;5075760;28;20624;-75
2022/04/19 01:37:59;;;;;;;13.33;8.70;;;2.80;99.90;;;;;;5082945;28;20251;-75
2022/04/19 01:40:27;;;;;;;13.13;9.00;;;2.80;99.90;;;;;;5083823;28;20201;-76
2022/04/19 01:42:58;;;;;;;18.37;10.97;;;2.70;99.90;;;;;;5083851;28;20219;-75
2022/04/19 01:45:26;;;;;;;25.00;12.80;;;2.70;99.90;;;;;;5078410;28;20197;-75
2022/04/19 01:47:55;;;;;;;27.13;14.50;;;2.50;99.90;;;;;;5076061;28;20699;-75
2022/04/19 01:50:22;;;;;;;22.67;12.70;;;2.40;99.90;;;;;;5075241;28;20199;-75
2022/04/19 01:52:52;;;;;;;22.20;11.33;;;2.30;99.90;;;;;;5075008;28;20196;-75
2022/04/19 01:55:20;;;;;;;17.53;11.30;;;2.40;99.90;;;;;;5075153;28;20197;-75
2022/04/19 01:57:49;;;;;;;22.50;10.77;;;2.50;99.90;;;;;;5074599;28;20684;-75
2022/04/19 02:00:17;;;;;;;17.73;9.40;;;2.40;99.90;;;;;;5074792;28;20205;-75
2022/04/19 02:02:45;;;;;;;14.23;9.07;;;2.40;99.90;;;;;;5074711;28;20255;-75
2022/04/19 02:05:12;;;;;;;13.77;8.53;;;2.30;99.90;;;;;;5074181;28;20201;-75
2022/04/19 02:07:39;;;;;;;15.87;8.23;;;2.40;99.90;;;;;;5074406;28;20625;-75
2022/04/19 02:10:08;;;;;;;15.97;7.87;;;2.40;99.90;;;;;;5074213;28;20278;-75
2022/04/19 02:12:34;;;;;;;11.63;8.10;;;2.50;99.90;;;;;;5074492;28;20197;-75
2022/04/19 02:15:03;;;;;;;8.90;7.30;;;2.70;99.90;;;;;;5074566;28;20197;-75
2022/04/19 02:17:30;;;;;;;12.50;7.63;;;2.80;99.90;;;;;;5074430;28;20683;-75
2022/04/19 02:20:00;;;;;;;10.07;7.53;;;2.70;99.90;;;;;;5074413;28;20230;-76
2022/04/19 02:22:27;;;;;;;9.87;7.53;;;2.60;99.90;;;;;;5077706;28;20283;-75
2022/04/19 02:24:55;;;;;;;11.30;7.00;;;2.60;99.90;;;;;;5082500;28;20197;-75
2022/04/19 02:27:21;;;;;;;14.30;7.63;;;2.50;99.90;;;;;;5082150;28;20267;-75
2022/04/19 02:29:48;;;;;;;12.50;7.27;;;2.50;99.90;;;;;;5083833;28;20205;-75
2022/04/19 02:32:16;;;;;;;14.33;7.40;;;2.50;99.90;;;;;;5083864;28;20197;-75
2022/04/19 02:34:43;;;;;;;9.80;7.23;;;2.50;99.90;;;;;;5084469;28;20644;-75
2022/04/19 02:37:09;;;;;;;15.90;8.17;;;2.60;99.90;;;;;;5085220;28;20197;-75
2022/04/19 02:39:36;;;;;;;10.60;6.83;;;2.60;99.90;;;;;;5079825;28;20242;-75
2022/04/19 02:42:03;;;;;;;9.57;7.47;;;2.60;99.90;;;;;;5077102;28;20227;-74
2022/04/19 02:44:30;;;;;;;11.87;7.47;;;2.60;99.90;;;;;;5076393;28;20644;-74
2022/04/19 02:46:57;;;;;;;10.53;6.70;;;2.60;99.90;;;;;;5075716;28;20235;-74
2022/04/19 02:49:25;;;;;;;10.53;7.33;;;2.50;99.90;;;;;;5075223;28;20603;-75
2022/04/19 02:51:52;;;;;;;8.83;6.73;;;2.40;99.90;;;;;;5076112;28;20201;-75
2022/04/19 02:54:19;;;;;;;8.07;6.97;;;2.50;99.90;;;;;;5074042;28;20203;-75
2022/04/19 02:56:45;;;;;;;13.67;7.20;;;2.40;99.90;;;;;;5075332;28;20653;-76
2022/04/19 02:59:12;;;;;;;15.77;9.13;;;2.30;99.90;;;;;;5076220;28;20197;-74
2022/04/19 03:01:38;;;;;;;19.43;10.97;;;2.30;99.90;;;;;;5075903;28;20193;-74
2022/04/19 03:04:06;;;;;;;19.43;10.23;;;2.40;99.90;;;;;;5075680;28;20530;-74
2022/04/19 03:06:34;;;;;;;15.73;9.97;;;2.40;99.90;;;;;;5074681;28;20212;-74
2022/04/19 03:09:01;;;;;;;15.23;8.63;;;2.40;99.90;;;;;;5074460;28;20189;-74
2022/04/19 03:11:28;;;;;;;15.13;8.60;;;2.50;99.90;;;;;;5074141;28;20247;-75
2022/04/19 03:13:55;;;;;;;14.07;8.90;;;2.70;99.90;;;;;;5075060;28;20210;-75
2022/04/19 03:16:22;;;;;;;15.70;8.60;;;2.60;99.90;;;;;;5074925;28;20287;-75
2022/04/19 03:18:49;;;;;;;17.47;9.97;;;2.70;99.90;;;;;;5076190;28;20193;-75
2022/04/19 03:21:15;;;;;;;16.33;10.57;;;2.60;99.90;;;;;;5081597;28;20197;-75
2022/04/19 03:29:11;;;;;;;14.03;9.50;;;2.30;99.90;;;;;;5061341;28;20203;-73
2022/04/19 03:31:38;;;;;;;13.97;8.70;;;2.30;99.90;;;;;;5080111;28;20205;-74
2022/04/19 03:34:06;;;;;;;11.70;8.40;;;2.50;99.90;;;;;;5077427;28;20201;-74
2022/04/19 03:36:34;;;;;;;12.40;8.13;;;2.70;99.90;;;;;;5076507;28;20207;-74
2022/04/19 03:39:01;;;;;;;12.50;8.53;;;2.70;99.90;;;;;;5073474;28;20682;-74
2022/04/19 03:41:28;;;;;;;13.30;8.43;;;2.60;99.90;;;;;;5073818;28;20253;-74
2022/04/19 03:43:55;;;;;;;10.53;8.07;;;2.30;99.90;;;;;;5077166;28;20243;-74
2022/04/19 03:46:22;;;;;;;16.17;8.37;;;2.40;99.90;;;;;;5077345;28;20204;-75
2022/04/19 03:48:48;;;;;;;10.13;7.67;;;2.30;99.90;;;;;;5077277;28;20197;-75
2022/04/19 03:51:15;;;;;;;16.23;8.70;;;2.20;99.90;;;;;;5077216;28;20671;-75
2022/04/19 03:53:41;;;;;;;13.67;8.37;;;2.10;99.90;;;;;;5076979;28;20198;-75
2022/04/19 03:56:09;;;;;;;19.43;8.73;;;2.00;99.90;;;;;;5076691;28;20656;-74
2022/04/19 03:58:38;;;;;;;22.93;8.60;;;1.90;99.90;;;;;;5077137;28;20205;-75
2022/04/19 04:01:05;;;;;;;10.57;8.40;;;1.80;99.90;;;;;;5076920;28;20201;-74
2022/04/19 04:03:32;;;;;;;12.10;8.63;;;1.80;99.90;;;;;;5077185;28;20197;-75
2022/04/19 04:05:58;;;;;;;12.50;9.17;;;1.70;99.90;;;;;;5076892;28;20607;-74
2022/04/19 04:08:25;;;;;;;17.90;8.57;;;1.70;99.90;;;;;;5077056;28;20229;-75
2022/04/19 04:10:52;;;;;;;14.03;9.33;;;1.60;99.90;;;;;;5080773;28;20265;-75
2022/04/19 04:13:20;;;;;;;12.20;8.60;;;1.60;99.90;;;;;;5077467;28;20204;-75
2022/04/19 04:15:47;;;;;;;13.87;9.70;;;1.70;99.90;;;;;;5078578;28;20225;-75
2022/04/19 04:18:14;;;;;;;15.13;10.07;;;1.70;99.90;;;;;;5078961;28;20661;-74
2022/04/19 04:20:40;;;;;;;14.70;9.77;;;1.60;99.90;;;;;;5079122;28;20201;-76
2022/04/19 04:23:07;;;;;;;13.67;9.07;;;1.70;99.90;;;;;;5079922;28;20630;-75
2022/04/19 04:25:34;;;;;;;13.93;9.27;;;1.80;99.90;;;;;;5078349;28;20196;-75
2022/04/19 04:28:00;;;;;;;15.17;9.87;;;1.80;99.90;;;;;;5078417;28;20225;-75
2022/04/19 04:30:28;;;;;;;17.17;10.27;;;1.60;99.90;;;;;;5079182;28;20595;-75
2022/04/19 04:32:55;;;;;;;14.47;9.53;;;1.50;99.90;;;;;;5077573;28;20201;-75
2022/04/19 04:35:21;;;;;;;18.63;10.70;;;1.50;99.90;;;;;;5077136;28;20197;-75
2022/04/19 04:37:48;;;;;;;13.77;9.60;;;1.60;99.90;;;;;;5078074;28;20250;-75
2022/04/19 04:40:14;;;;;;;16.93;9.87;;;1.80;99.90;;;;;;5077392;28;20197;-75
2022/04/19 04:42:41;;;;;;;14.07;8.60;;;1.90;99.90;;;;;;5078466;28;20203;-75
2022/04/19 04:45:09;;;;;;;14.60;8.83;;;2.10;99.90;;;;;;5077728;28;20208;-74
2022/04/19 04:50:21;;;;;;;11.13;9.03;;;2.10;99.90;;;;;;5076755;28;20200;-75
2022/04/19 04:52:49;;;;;;;12.93;9.67;;;2.00;99.90;;;;;;5077960;28;20197;-74
2022/04/19 04:55:16;;;;;;;11.80;8.90;;;2.00;99.90;;;;;;5077759;28;20208;-75
2022/04/19 04:57:43;;;;;;;16.67;9.30;;;2.00;99.90;;;;;;5076884;28;20209;-75
2022/04/19 05:00:11;;;;;;;12.83;8.33;;;2.00;99.90;;;;;;5078512;28;20254;-75
2022/04/19 05:02:39;;;;;;;15.17;9.10;;;2.00;99.90;;;;;;5077765;28;20255;-75
2022/04/19 05:05:07;;;;;;;12.50;8.97;;;2.00;99.90;;;;;;5076952;28;20204;-75
2022/04/19 05:07:37;;;;;;;14.20;8.47;;;2.10;99.90;;;;;;5076613;28;20615;-75
2022/04/19 05:10:04;;;;;;;29.70;17.83;;;2.10;99.90;;;;;;5076055;28;20270;-75
2022/04/19 05:12:30;;;;;;;13.57;11.50;;;2.20;99.90;;;;;;5075624;28;20231;-75
2022/04/19 05:14:57;;;;;;;10.90;7.83;;;2.30;99.90;;;;;;5074945;28;20197;-75
2022/04/19 05:17:24;;;;;;;14.80;9.37;;;2.50;99.90;;;;;;5075495;28;20197;-75
2022/04/19 05:19:53;;;;;;;12.80;9.33;;;2.60;99.90;;;;;;5075365;28;20534;-75
2022/04/19 05:22:20;;;;;;;9.80;8.07;;;2.60;99.90;;;;;;5075110;28;20229;-75
2022/04/19 05:24:47;;;;;;;10.53;7.87;;;2.80;99.90;;;;;;5075006;28;20201;-75
2022/04/19 05:27:13;;;;;;;8.97;7.73;;;2.90;99.90;;;;;;5074970;28;20262;-75
2022/04/19 05:29:40;;;;;;;14.13;7.87;;;3.10;99.90;;;;;;5074992;28;20192;-75
2022/04/19 05:32:08;;;;;;;9.60;7.57;;;3.20;99.90;;;;;;5074971;28;20648;-75
2022/04/19 05:34:34;;;;;;;12.23;7.40;;;3.20;99.90;;;;;;5075022;28;20707;-75
2022/04/19 05:37:02;;;;;;;11.77;8.17;;;3.30;99.90;;;;;;5074892;28;20247;-75
2022/04/19 05:39:29;;;;;;;9.60;7.73;;;3.50;99.90;;;;;;5074640;28;20541;-75
2022/04/19 05:41:56;;;;;;;9.17;7.33;;;3.60;99.90;;;;;;5074711;28;20252;-75
2022/04/19 05:44:22;;;;;;;11.80;7.80;;;3.70;99.90;;;;;;5075135;28;20193;-75
2022/04/19 05:46:50;;;;;;;9.63;7.57;;;3.70;99.90;;;;;;5074791;28;20610;-75
2022/04/19 05:49:17;;;;;;;10.73;7.40;;;3.80;99.90;;;;;;5074572;28;20565;-75
2022/04/19 05:51:44;;;;;;;10.90;7.87;;;4.00;99.90;;;;;;5074476;28;20245;-75
2022/04/19 05:54:12;;;;;;;10.83;7.63;;;4.10;99.90;;;;;;5074460;28;20232;-75
2022/04/19 05:56:38;;;;;;;10.00;6.87;;;4.20;99.90;;;;;;5074970;28;20229;-75
2022/04/19 05:59:05;;;;;;;10.23;7.20;;;4.30;99.90;;;;;;5074633;28;20200;-75
2022/04/19 06:06:56;;;;;;;8.90;7.20;;;4.50;99.90;;;;;;5073847;28;20249;-75
2022/04/19 06:09:24;;;;;;;10.23;7.77;;;4.50;99.90;;;;;;5074212;28;20202;-75
2022/04/19 06:11:51;;;;;;;12.90;7.90;;;4.70;99.90;;;;;;5074228;28;20198;-75
2022/04/19 06:14:17;;;;;;;9.63;7.30;;;4.70;99.90;;;;;;5073922;28;20208;-75
2022/04/19 06:16:44;;;;;;;10.00;7.00;;;4.80;99.90;;;;;;5073794;28;20199;-75
2022/04/19 06:19:11;;;;;;;9.97;7.23;;;4.90;99.90;;;;;;5073822;28;20204;-75
2022/04/19 06:21:37;;;;;;;9.03;6.87;;;5.00;99.90;;;;;;5073465;28;20721;-75
2022/04/19 06:24:05;;;;;;;9.07;7.47;;;5.10;99.90;;;;;;5073886;28;20252;-75
2022/04/19 06:26:33;;;;;;;12.33;7.53;;;5.20;99.90;;;;;;5073666;28;20723;-75
2022/04/19 06:28:59;;;;;;;10.83;7.70;;;5.30;99.90;;;;;;5073141;28;20229;-75
2022/04/19 06:31:26;;;;;;;10.07;7.70;;;5.40;99.90;;;;;;5073126;28;20211;-75
2022/04/19 06:33:53;;;;;;;12.73;7.70;;;5.50;99.90;;;;;;5072979;28;20201;-74
2022/04/19 06:36:20;;;;;;;10.33;7.53;;;5.60;99.90;;;;;;5072767;28;20200;-75
2022/04/19 06:38:46;;;;;;;13.60;8.43;;;5.70;99.90;;;;;;5073061;28;20261;-76
2022/04/19 06:41:13;;;;;;;12.40;8.20;;;5.80;99.90;;;;;;5073131;28;20205;-75
2022/04/19 06:43:41;;;;;;;11.67;8.30;;;5.90;99.90;;;;;;5073009;28;20200;-74
2022/04/19 06:46:08;;;;;;;10.10;7.87;;;6.10;99.90;;;;;;5072770;28;20197;-75
2022/04/19 06:48:35;;;;;;;14.23;8.23;;;6.20;99.90;;;;;;5072722;28;20217;-75
2022/04/19 06:51:02;;;;;;;11.57;7.90;;;6.40;99.90;;;;;;5072803;28;20648;-76
2022/04/19 06:53:30;;;;;;;10.93;7.70;;;6.60;99.90;;;;;;5072557;28;20656;-75
2022/04/19 06:55:57;;;;;;;8.53;6.97;;;6.70;99.90;;;;;;5073123;28;20196;-74
2022/04/19 06:58:24;;;;;;;13.07;7.07;;;6.70;99.90;;;;;;5073346;28;20197;-75
2022/04/19 07:00:52;;;;;;;13.20;8.17;;;6.90;99.90;;;;;;5073033;28;20676;-74
2022/04/19 07:03:18;;;;;;;12.77;7.87;;;7.10;99.90;;;;;;5072922;28;20603;-74
2022/04/19 07:05:45;;;;;;;13.60;8.77;;;7.30;99.90;;;;;;5072998;28;20193;-74
2022/04/19 07:08:11;;;;;;;12.10;7.50;;;7.50;99.90;;;;;;5072579;28;20759;-75
2022/04/19 07:10:38;;;;;;;10.60;7.10;;;7.70;99.90;;;;;;5072748;28;20200;-75
2022/04/19 07:13:06;;;;;;;8.83;6.87;;;7.80;99.90;;;;;;5072804;28;20736;-75
2022/04/19 07:15:32;;;;;;;9.03;6.80;;;7.90;99.90;;;;;;5072588;28;20197;-75
2022/04/19 07:18:00;;;;;;;9.63;7.30;;;8.20;99.90;;;;;;5074472;28;20199;-75
2022/04/19 07:28:39;;;;;;;8.27;6.67;;;9.20;99.90;;;;;;5076393;28;20232;-74
2022/04/19 07:31:06;;;;;;;8.13;6.80;;;9.60;99.90;;;;;;5076736;28;20201;-75
2022/04/19 07:33:37;;;;;;;8.30;6.57;;;9.90;99.90;;;;;;5076300;28;20648;-75
2022/04/19 07:36:05;;;;;;;10.83;5.97;;;10.10;99.90;;;;;;5076656;28;20193;-75
2022/04/19 07:38:31;;;;;;;7.23;5.30;;;10.60;99.90;;;;;;5076714;28;20196;-75
2022/04/19 07:40:58;;;;;;;7.17;5.57;;;10.70;99.80;;;;;;5076299;28;20543;-75
2022/04/19 07:43:25;;;;;;;7.03;5.23;;;10.60;96.90;;;;;;5076608;28;20193;-75
2022/04/19 07:45:51;;;;;;;6.07;4.57;;;10.80;98.50;;;;;;5076523;28;20602;-75
2022/04/19 07:48:18;;;;;;;5.50;4.63;;;11.20;96.00;;;;;;5076292;28;20266;-75
2022/04/19 07:50:46;;;;;;;7.43;4.60;;;11.50;92.10;;;;;;5076217;28;20240;-75
2022/04/19 07:53:13;;;;;;;5.73;4.00;;;11.70;88.90;;;;;;5075884;28;20673;-75
2022/04/19 07:55:40;;;;;;;6.00;4.27;;;12.00;79.40;;;;;;5076216;28;20644;-74
2022/04/19 07:58:06;;;;;;;6.60;4.50;;;12.10;78.90;;;;;;5076041;28;20246;-75
2022/04/19 08:00:33;;;;;;;5.53;4.10;;;12.30;75.20;;;;;;5076027;28;20225;-74
2022/04/19 08:03:00;;;;;;;5.93;4.10;;;12.40;69.70;;;;;;5075858;28;20203;-74
2022/04/19 08:05:27;;;;;;;4.33;3.70;;;12.60;68.90;;;;;;5075723;28;20661;-74
2022/04/19 08:07:58;;;;;;;4.43;3.70;;;12.40;65.80;;;;;;5075632;28;20652;-75
2022/04/19 08:10:25;;;;;;;4.53;3.50;;;12.50;66.20;;;;;;5075925;28;20193;-74
2022/04/19 08:12:51;;;;;;;4.70;3.60;;;12.50;59.70;;;;;;5075664;28;20649;-74
2022/04/19 08:15:19;;;;;;;4.53;3.70;;;12.10;59.50;;;;;;5075822;28;20197;-74
2022/04/19 08:17:45;;;;;;;4.57;4.00;;;11.70;58.70;;;;;;5075632;28;20212;-74
2022/04/19 08:20:13;;;;;;;5.33;3.20;;;11.70;60.60;;;;;;5075423;28;20205;-74
2022/04/19 08:22:40;;;;;;;3.50;3.20;;;12.00;63.30;;;;;;5075525;28;20225;-74
2022/04/19 08:25:10;;;;;;;4.63;3.77;;;12.60;59.30;;;;;;5075509;28;20600;-74
2022/04/19 08:27:40;;;;;;;4.27;3.50;;;12.70;54.70;;;;;;5075359;28;20656;-74
2022/04/19 08:30:09;;;;;;;3.80;3.00;;;12.60;54.20;;;;;;5074111;28;20204;-74
2022/04/19 08:32:35;;;;;;;3.30;3.00;;;13.00;53.00;;;;;;5075601;28;20197;-75
2022/04/19 08:35:02;;;;;;;3.70;2.90;;;13.60;52.30;;;;;;5076438;28;20197;-75
2022/04/19 08:37:31;;;;;;;4.00;3.17;;;13.70;50.40;;;;;;5076526;28;20205;-74
2022/04/19 08:39:57;;;;;;;4.67;3.50;;;13.90;48.20;;;;;;5076465;28;20232;-76
2022/04/19 08:42:29;;;;;;;4.63;3.33;;;14.10;45.40;;;;;;5076743;28;20193;-77
2022/04/19 08:44:55;;;;;;;4.47;3.50;;;13.90;44.80;;;;;;5076411;28;20617;-74
2022/04/19 08:47:23;;;;;;;3.70;3.33;;;13.50;42.90;;;;;;5075960;28;20274;-74
2022/04/19 08:49:54;;;;;;;5.00;2.97;;;13.20;42.60;;;;;;5075298;28;20317;-74
2022/04/19 08:52:21;;;;;;;3.37;3.07;;;13.80;44.60;;;;;;5075385;28;20205;-74
2022/04/19 08:57:35;;;;;;;3.40;3.10;;;14.50;43.00;;;;;;5074957;28;20275;-75
2022/04/19 09:00:04;;;;;;;3.97;3.20;;;14.10;41.40;;;;;;5075013;28;20200;-75
2022/04/19 09:02:32;;;;;;;4.87;3.53;;;14.50;41.40;;;;;;5074615;28;20556;-75
2022/04/19 09:05:14;;;;;;;4.00;3.47;;;13.50;39.60;;;;;;5074940;28;20205;-75
2022/04/19 09:07:41;;;;;;;4.17;3.77;;;13.50;41.10;;;;;;5074739;28;20270;-74
2022/04/19 09:10:11;;;;;;;5.73;4.00;;;13.70;42.40;;;;;;5074371;28;20274;-74
2022/04/19 09:12:54;;;;;;;5.63;3.23;;;13.90;41.50;;;;;;5075143;28;20280;-74
2022/04/19 09:15:21;;;;;;;3.60;3.27;;;13.90;39.70;;;;;;5074631;28;20205;-74
2022/04/19 09:17:49;;;;;;;6.37;3.57;;;13.60;41.40;;;;;;5074530;28;20558;-74
2022/04/19 09:20:18;;;;;;;4.10;3.50;;;14.40;40.40;;;;;;5075198;28;20204;-75
2022/04/19 09:22:45;;;;;;;4.30;3.80;;;14.90;40.80;;;;;;5076119;28;20229;-74
2022/04/19 09:25:17;;;;;;;4.43;3.73;;;14.80;38.20;;;;;;5075191;28;20599;-75
2022/04/19 09:27:46;;;;;;;5.27;3.70;;;15.10;38.70;;;;;;5075735;28;20196;-75
2022/04/19 09:30:21;;;;;;;4.00;3.47;;;14.80;37.00;;;;;;5074438;28;20235;-74
2022/04/19 09:33:06;;;;;;;3.53;3.23;;;14.70;37.30;;;;;;5074108;28;20569;-74
2022/04/19 09:35:34;;;;;;;3.97;3.57;;;15.70;35.70;;;;;;5074106;28;20193;-75
2022/04/19 09:38:01;;;;;;;3.63;3.33;;;16.10;35.10;;;;;;5074122;28;20262;-76
2022/04/19 09:40:33;;;;;;;4.78;3.60;;;16.50;34.40;;;;;;5073290;28;20201;-76
2022/04/19 09:43:10;;;;;;;3.75;2.97;;;16.30;31.60;;;;;;5073849;28;20648;-76
2022/04/19 09:45:54;;;;;;;6.13;3.78;;;16.00;31.10;;;;;;5073756;28;20624;-76
2022/04/19 09:48:22;;;;;;;5.82;4.03;;;16.70;31.90;;;;;;5073732;28;20201;-76
2022/04/19 09:50:50;;;;;;;3.85;3.40;;;17.40;29.60;;;;;;5073807;28;20227;-77
2022/04/19 09:53:19;;;;;;;3.97;3.58;;;17.20;28.30;;;;;;5073762;28;20284;-76
2022/04/19 09:55:50;;;;;;;3.65;3.30;;;17.20;28.40;;;;;;5073585;28;20201;-76
2022/04/19 09:58:19;;;;;;;3.67;3.38;;;17.00;26.90;;;;;;5073492;28;20210;-76
2022/04/19 10:00:47;;;;;;;4.20;3.80;;;16.90;26.80;;;;;;5073611;28;20201;-76
2022/04/19 10:08:44;;;;;;;5.13;4.35;;;17.60;27.80;;;;;;5073354;28;20734;-75
2022/04/19 10:11:11;;;;;;;5.05;4.35;;;17.60;26.70;;;;;;5073639;28;20619;-75
2022/04/19 10:13:40;;;;;;;4.80;4.40;;;17.60;27.20;;;;;;5073462;28;20225;-75
2022/04/19 10:16:11;;;;;;;5.25;4.80;;;17.90;27.10;;;;;;5073405;28;20229;-78
2022/04/19 10:18:37;;;;;;;3.92;3.63;;;17.10;26.40;;;;;;5073310;28;20201;-75
2022/04/19 10:21:09;;;;;;;5.13;4.63;;;17.80;27.10;;;;;;5073031;28;20197;-76
2022/04/19 10:23:37;;;;;;;5.07;4.68;;;18.10;26.30;;;;;;5073143;28;20688;-75
2022/04/19 10:26:14;;;;;;;5.15;4.43;;;18.40;25.60;;;;;;5073243;28;20193;-75
2022/04/19 10:28:42;;;;;;;4.80;4.38;;;19.10;25.50;;;;;;5072124;28;20221;-76
2022/04/19 10:31:10;;;;;;;5.47;4.97;;;18.90;24.30;;;;;;5072921;28;20204;-75
2022/04/19 10:33:44;;;;;;;5.68;5.18;;;18.60;24.10;;;;;;5073021;28;20197;-76
2022/04/19 10:36:15;;;;;;;5.35;4.85;;;18.00;24.80;;;;;;5072801;28;20660;-76
2022/04/19 10:38:42;;;;;;;5.63;4.53;;;18.00;25.50;;;;;;5073131;28;20201;-75
2022/04/19 10:41:09;;;;;;;5.50;4.25;;;18.60;25.00;;;;;;5073038;28;20193;-74
2022/04/19 10:43:36;;;;;;;5.32;4.30;;;18.60;24.90;;;;;;5073114;28;20193;-75
2022/04/19 10:46:20;;;;;;;5.03;4.55;;;20.10;23.40;;;;;;5072437;28;20649;-76
2022/04/19 10:49:23;;;;;;;6.55;4.25;;;19.30;23.00;;;;;;5073024;28;20217;-76
2022/04/19 10:51:51;;;;;;;5.57;4.15;;;19.40;23.20;;;;;;5072743;28;20274;-75
2022/04/19 10:54:38;;;;;;;6.10;4.80;;;19.60;23.70;;;;;;5072690;28;20197;-76
2022/04/19 10:58:05;;;;;;;4.88;4.43;;;21.10;22.40;;;;;;5072527;28;20665;-76
2022/04/19 11:00:19;;;;;;;5.57;4.57;;;20.20;22.10;;;;;;5072505;28;20201;-76
2022/04/19 11:02:57;;;;;;;5.05;4.55;;;20.30;21.90;;;;;;5072711;28;20197;-76
2022/04/19 11:05:41;;;;;;;4.32;3.60;;;20.50;21.30;;;;;;5072776;28;20218;-76
2022/04/19 11:08:37;;;;;;;4.63;4.22;;;19.80;19.10;;;;;;5072862;28;20193;-76
2022/04/19 11:11:23;;;;;;;4.13;3.58;;;18.70;20.30;;;;;;5072640;28;20288;-76
2022/04/19 11:14:21;;;;;;;4.13;3.80;;;20.10;21.10;;;;;;5072867;28;20207;-76
2022/04/19 11:16:50;;;;;;;6.30;4.03;;;20.40;19.30;;;;;;5047428;28;20193;-76
2022/04/19 11:19:20;;;;;;;4.65;4.25;;;20.10;19.50;;;;;;5072572;28;20231;-76
2022/04/19 11:21:50;;;;;;;4.28;3.88;;;20.40;20.20;;;;;;5072557;28;20274;-76
2022/04/19 11:24:54;;;;;;;4.80;4.22;;;21.80;18.80;;;;;;5072715;28;20206;-76
2022/04/19 11:27:21;;;;;;;5.82;4.22;;;20.80;19.20;;;;;;5072584;28;20197;-76
2022/04/19 11:29:48;;;;;;;4.07;3.78;;;20.80;19.20;;;;;;5072434;28;20271;-76
2022/04/19 11:32:21;;;;;;;6.38;4.18;;;22.60;18.80;;;;;;5072507;28;20223;-75
2022/04/19 11:35:01;;;;;;;4.80;4.40;;;22.60;16.50;;;;;;5072133;28;20584;-75
2022/04/19 11:37:28;;;;;;;4.88;4.07;;;21.30;17.90;;;;;;5072658;28;20251;-75
2022/04/19 11:48:27;;;;;;;5.40;4.90;;;20.20;18.30;;;;;;5030020;28;20195;-75
2022/04/19 11:51:06;;;;;;;5.20;4.70;;;20.70;18.80;;;;;;5062177;28;20270;-76
2022/04/19 11:53:33;;;;;;;4.93;4.20;;;21.30;17.50;;;;;;5072471;28;20254;-76
2022/04/19 11:56:00;;;;;;;5.28;4.78;;;22.20;17.10;;;;;;5072303;28;20644;-75
2022/04/19 11:58:31;;;;;;;4.65;4.25;;;21.10;17.30;;;;;;5072528;28;20201;-78
2022/04/19 12:01:00;;;;;;;5.28;4.78;;;21.00;17.50;;;;;;5072021;28;20327;-75
2022/04/19 12:03:29;;;;;;;4.38;3.88;;;19.90;18.70;;;;;;5073190;28;20250;-75
2022/04/19 12:06:05;;;;;;;4.35;3.95;;;21.10;17.80;;;;;;5075944;28;20197;-75
2022/04/19 12:08:33;;;;;;;4.25;3.85;;;20.80;17.80;;;;;;5075746;28;20667;-75
2022/04/19 12:11:03;;;;;;;4.35;3.95;;;20.90;17.30;;;;;;5075878;28;20225;-75
2022/04/19 12:13:29;;;;;;;4.20;3.80;;;21.90;17.70;;;;;;5075811;28;20197;-75
2022/04/19 12:15:56;;;;;;;4.05;3.67;;;21.40;17.50;;;;;;5075967;28;20208;-75
2022/04/19 12:18:33;;;;;;;4.22;3.80;;;22.10;18.40;;;;;;5075787;28;20271;-75
2022/04/19 12:21:02;;;;;;;5.68;3.63;;;23.00;17.20;;;;;;5075850;28;20683;-75
2022/04/19 12:23:29;;;;;;;3.75;3.45;;;25.00;16.40;;;;;;5076449;28;20229;-75
2022/04/19 12:26:04;;;;;;;3.65;3.35;;;25.00;15.60;;;;;;5076024;28;20201;-77
2022/04/19 12:28:41;;;;;;;3.60;3.30;;;25.30;16.30;;;;;;5076052;28;20270;-77
2022/04/19 12:31:07;;;;;;;4.85;2.85;;;24.00;15.30;;;;;;5075853;28;20588;-75
2022/04/19 12:33:35;;;;;;;2.88;2.67;;;23.00;16.40;;;;;;5075388;28;20588;-75
2022/04/19 12:36:11;;;;;;;2.80;2.60;;;22.70;16.60;;;;;;5075430;28;20193;-74
2022/04/19 12:38:37;;;;;;;2.90;2.70;;;23.50;15.60;;;;;;5075456;28;20231;-76
2022/04/19 12:41:15;;;;;;;3.83;2.42;;;25.30;14.90;;;;;;5075405;28;20270;-75
2022/04/19 12:43:47;;;;;;;2.70;2.50;;;24.20;13.70;;;;;;5075255;28;20204;-76
2022/04/19 12:46:14;;;;;;;2.72;2.53;;;22.80;14.90;;;;;;5075175;28;20537;-75
2022/04/19 12:48:41;;;;;;;3.05;2.75;;;24.70;14.30;;;;;;5075073;28;20255;-76
2022/04/19 12:51:09;;;;;;;3.00;2.38;;;24.70;13.50;;;;;;5074621;28;20270;-75
2022/04/19 12:53:40;;;;;;;2.90;2.70;;;24.40;13.70;;;;;;5074922;28;20660;-75
2022/04/19 12:56:11;;;;;;;3.03;2.70;;;24.10;14.30;;;;;;5075116;28;20655;-76
2022/04/19 12:58:43;;;;;;;3.95;2.28;;;24.70;14.30;;;;;;5075083;28;20196;-76
2022/04/19 13:01:10;;;;;;;3.10;2.80;;;23.80;14.30;;;;;;5075197;28;20284;-76
2022/04/19 13:03:37;;;;;;;2.85;2.60;;;22.70;15.00;;;;;;5074995;28;20201;-74
2022/04/19 13:14:27;;;;;;;3.40;3.08;;;21.10;17.20;;;;;;5073985;28;20759;-76
2022/04/19 13:16:54;;;;;;;2.90;2.70;;;21.60;16.70;;;;;;5074374;28;20206;-76
2022/04/19 13:19:20;;;;;;;4.00;3.08;;;21.20;17.30;;;;;;5074830;28;20196;-76
2022/04/19 13:21:47;;;;;;;3.72;3.42;;;20.30;18.30;;;;;;5074424;28;20604;-76
2022/04/19 13:24:15;;;;;;;4.13;2.85;;;20.00;18.30;;;;;;5074632;28;20231;-77
2022/04/19 13:26:42;;;;;;;2.85;2.65;;;20.50;18.60;;;;;;5074591;28;20271;-76
2022/04/19 13:29:09;;;;;;;3.15;2.70;;;23.10;16.90;;;;;;5074737;28;20201;-74
2022/04/19 13:31:36;;;;;;;2.90;2.40;;;24.50;14.50;;;;;;5074387;28;20229;-76
2022/04/19 13:34:02;;;;;;;2.40;2.20;;;24.20;14.00;;;;;;5074559;28;20201;-76
2022/04/19 13:36:29;;;;;;;4.68;2.10;;;23.80;14.30;;;;;;5075222;28;20221;-76
2022/04/19 13:38:57;;;;;;;4.50;2.40;;;23.30;14.60;;;;;;5074231;28;20258;-77
2022/04/19 13:41:25;;;;;;;4.63;2.45;;;23.30;14.40;;;;;;5074448;28;20311;-76
2022/04/19 13:43:52;;;;;;;2.50;2.10;;;24.70;14.20;;;;;;5074119;28;20284;-76